sensor_id;sensor_type;location;lat;lon;timestamp;P1;durP1;ratioP1;P2;durP2;ratioP2
76801;SDS011;66403;50.832;10.950;2023-07-16T00:03:08;2.22;;;1.75;;
76801;SDS011;66403;50.832;10.950;2023-07-16T00:08:08;2.50;;;1.95;;
76801;SDS011;66403;50.832;10.950;2023-07-16T00:13:09;2.75;;;1.73;;
76801;SDS011;66403;50.832;10.950;2023-07-16T00:18:09;2.35;;;1.75;;
76801;SDS011;66403;50.832;10.950;2023-07-16T00:23:09;3.70;;;1.90;;
76801;SDS011;66403;50.832;10.950;2023-07-16T00:28:10;2.42;;;1.63;;
76801;SDS011;66403;50.832;10.950;2023-07-16T00:33:12;1.60;;;1.50;;
76801;SDS011;66403;50.832;10.950;2023-07-16T00:38:13;1.90;;;1.40;;
76801;SDS011;66403;50.832;10.950;2023-07-16T00:43:13;5.85;;;2.92;;
76801;SDS011;66403;50.832;10.950;2023-07-16T00:48:14;3.08;;;1.80;;
76801;SDS011;66403;50.832;10.950;2023-07-16T00:53:15;1.98;;;1.77;;
76801;SDS011;66403;50.832;10.950;2023-07-16T00:58:15;2.53;;;1.15;;
76801;SDS011;66403;50.832;10.950;2023-07-16T01:03:16;1.45;;;1.25;;
76801;SDS011;66403;50.832;10.950;2023-07-16T01:08:20;2.22;;;1.55;;
76801;SDS011;66403;50.832;10.950;2023-07-16T01:13:23;1.60;;;1.17;;
76801;SDS011;66403;50.832;10.950;2023-07-16T01:18:23;2.22;;;1.48;;
76801;SDS011;66403;50.832;10.950;2023-07-16T01:34:15;2.60;;;1.35;;
76801;SDS011;66403;50.832;10.950;2023-07-16T01:39:16;4.93;;;2.65;;
76801;SDS011;66403;50.832;10.950;2023-07-16T01:44:16;2.45;;;1.52;;
76801;SDS011;66403;50.832;10.950;2023-07-16T01:49:17;6.70;;;1.45;;
76801;SDS011;66403;50.832;10.950;2023-07-16T01:54:17;1.83;;;1.23;;
76801;SDS011;66403;50.832;10.950;2023-07-16T01:59:18;2.20;;;1.52;;
76801;SDS011;66403;50.832;10.950;2023-07-16T02:04:20;2.80;;;1.25;;
76801;SDS011;66403;50.832;10.950;2023-07-16T02:09:21;1.98;;;1.40;;
76801;SDS011;66403;50.832;10.950;2023-07-16T02:14:21;1.42;;;1.33;;
76801;SDS011;66403;50.832;10.950;2023-07-16T02:19:22;2.75;;;1.55;;
76801;SDS011;66403;50.832;10.950;2023-07-16T02:24:23;1.70;;;1.38;;
76801;SDS011;66403;50.832;10.950;2023-07-16T02:29:25;2.40;;;1.50;;
76801;SDS011;66403;50.832;10.950;2023-07-16T02:34:25;4.07;;;1.25;;
76801;SDS011;66403;50.832;10.950;2023-07-16T02:39:27;2.05;;;1.48;;
76801;SDS011;66403;50.832;10.950;2023-07-16T02:44:28;1.05;;;0.80;;
76801;SDS011;66403;50.832;10.950;2023-07-16T02:49:28;2.78;;;1.23;;
76801;SDS011;66403;50.832;10.950;2023-07-16T02:54:29;1.70;;;1.13;;
76801;SDS011;66403;50.832;10.950;2023-07-16T02:59:29;1.47;;;0.97;;
76801;SDS011;66403;50.832;10.950;2023-07-16T03:04:30;1.37;;;1.20;;
76801;SDS011;66403;50.832;10.950;2023-07-16T03:09:30;1.30;;;0.93;;
76801;SDS011;66403;50.832;10.950;2023-07-16T03:14:31;2.28;;;1.10;;
76801;SDS011;66403;50.832;10.950;2023-07-16T03:19:31;1.48;;;1.00;;
76801;SDS011;66403;50.832;10.950;2023-07-16T03:24:32;3.05;;;1.30;;
76801;SDS011;66403;50.832;10.950;2023-07-16T03:29:33;1.10;;;1.00;;
76801;SDS011;66403;50.832;10.950;2023-07-16T03:34:34;2.03;;;1.10;;
76801;SDS011;66403;50.832;10.950;2023-07-16T03:39:35;1.75;;;1.48;;
76801;SDS011;66403;50.832;10.950;2023-07-16T03:44:36;2.00;;;1.20;;
76801;SDS011;66403;50.832;10.950;2023-07-16T03:49:37;4.05;;;1.30;;
76801;SDS011;66403;50.832;10.950;2023-07-16T03:54:38;3.17;;;1.55;;
76801;SDS011;66403;50.832;10.950;2023-07-16T03:59:39;2.10;;;1.23;;
76801;SDS011;66403;50.832;10.950;2023-07-16T04:04:40;1.83;;;1.30;;
76801;SDS011;66403;50.832;10.950;2023-07-16T04:09:40;1.15;;;1.05;;
76801;SDS011;66403;50.832;10.950;2023-07-16T04:14:41;1.50;;;1.00;;
76801;SDS011;66403;50.832;10.950;2023-07-16T04:19:41;1.77;;;1.27;;
76801;SDS011;66403;50.832;10.950;2023-07-16T04:24:42;1.73;;;1.30;;
76801;SDS011;66403;50.832;10.950;2023-07-16T04:29:42;1.75;;;1.23;;
76801;SDS011;66403;50.832;10.950;2023-07-16T04:34:43;3.40;;;1.52;;
76801;SDS011;66403;50.832;10.950;2023-07-16T04:39:43;1.73;;;1.30;;
76801;SDS011;66403;50.832;10.950;2023-07-16T04:44:43;1.65;;;1.23;;
76801;SDS011;66403;50.832;10.950;2023-07-16T04:49:44;2.90;;;1.45;;
76801;SDS011;66403;50.832;10.950;2023-07-16T04:54:44;2.50;;;1.23;;
76801;SDS011;66403;50.832;10.950;2023-07-16T04:59:45;5.37;;;1.20;;
76801;SDS011;66403;50.832;10.950;2023-07-16T05:04:45;4.17;;;1.33;;
76801;SDS011;66403;50.832;10.950;2023-07-16T05:09:48;1.63;;;1.20;;
76801;SDS011;66403;50.832;10.950;2023-07-16T05:14:49;3.37;;;1.10;;
76801;SDS011;66403;50.832;10.950;2023-07-16T05:19:50;2.63;;;1.33;;
76801;SDS011;66403;50.832;10.950;2023-07-16T05:24:50;3.00;;;1.10;;
76801;SDS011;66403;50.832;10.950;2023-07-16T05:29:51;2.35;;;1.23;;
76801;SDS011;66403;50.832;10.950;2023-07-16T05:34:51;2.78;;;2.05;;
76801;SDS011;66403;50.832;10.950;2023-07-16T05:39:52;3.47;;;1.33;;
76801;SDS011;66403;50.832;10.950;2023-07-16T05:44:52;3.97;;;1.27;;
76801;SDS011;66403;50.832;10.950;2023-07-16T05:49:52;2.88;;;1.10;;
76801;SDS011;66403;50.832;10.950;2023-07-16T05:54:53;2.33;;;0.90;;
76801;SDS011;66403;50.832;10.950;2023-07-16T05:59:56;3.70;;;1.30;;
76801;SDS011;66403;50.832;10.950;2023-07-16T06:04:56;5.63;;;1.90;;
76801;SDS011;66403;50.832;10.950;2023-07-16T06:10:00;2.45;;;1.00;;
76801;SDS011;66403;50.832;10.950;2023-07-16T06:15:00;1.88;;;1.23;;
76801;SDS011;66403;50.832;10.950;2023-07-16T06:20:02;1.67;;;1.20;;
76801;SDS011;66403;50.832;10.950;2023-07-16T06:25:02;5.75;;;1.60;;
76801;SDS011;66403;50.832;10.950;2023-07-16T06:30:04;1.67;;;1.30;;
76801;SDS011;66403;50.832;10.950;2023-07-16T06:35:06;3.50;;;1.65;;
76801;SDS011;66403;50.832;10.950;2023-07-16T06:40:07;3.88;;;1.20;;
76801;SDS011;66403;50.832;10.950;2023-07-16T06:45:08;1.80;;;1.20;;
76801;SDS011;66403;50.832;10.950;2023-07-16T06:50:08;3.58;;;1.35;;
76801;SDS011;66403;50.832;10.950;2023-07-16T06:55:09;2.33;;;1.10;;
76801;SDS011;66403;50.832;10.950;2023-07-16T07:00:10;2.38;;;1.20;;
76801;SDS011;66403;50.832;10.950;2023-07-16T07:05:13;6.57;;;1.30;;
76801;SDS011;66403;50.832;10.950;2023-07-16T07:10:13;2.22;;;1.05;;
76801;SDS011;66403;50.832;10.950;2023-07-16T07:15:14;1.35;;;0.90;;
76801;SDS011;66403;50.832;10.950;2023-07-16T07:20:15;4.43;;;1.13;;
76801;SDS011;66403;50.832;10.950;2023-07-16T07:25:16;3.05;;;1.27;;
76801;SDS011;66403;50.832;10.950;2023-07-16T07:30:16;2.58;;;1.48;;
76801;SDS011;66403;50.832;10.950;2023-07-16T07:35:17;2.33;;;0.93;;
76801;SDS011;66403;50.832;10.950;2023-07-16T07:40:18;1.80;;;0.90;;
76801;SDS011;66403;50.832;10.950;2023-07-16T07:45:19;2.95;;;1.48;;
76801;SDS011;66403;50.832;10.950;2023-07-16T07:50:20;4.07;;;1.10;;
76801;SDS011;66403;50.832;10.950;2023-07-16T07:55:20;3.30;;;0.98;;
76801;SDS011;66403;50.832;10.950;2023-07-16T08:00:21;3.33;;;0.90;;
76801;SDS011;66403;50.832;10.950;2023-07-16T08:05:22;2.33;;;0.90;;
76801;SDS011;66403;50.832;10.950;2023-07-16T08:10:22;1.60;;;1.10;;
76801;SDS011;66403;50.832;10.950;2023-07-16T08:15:23;13.33;;;3.20;;
76801;SDS011;66403;50.832;10.950;2023-07-16T08:20:23;3.95;;;1.05;;
76801;SDS011;66403;50.832;10.950;2023-07-16T08:25:24;3.13;;;1.10;;
76801;SDS011;66403;50.832;10.950;2023-07-16T08:30:25;2.67;;;0.98;;
76801;SDS011;66403;50.832;10.950;2023-07-16T08:35:26;3.40;;;1.33;;
76801;SDS011;66403;50.832;10.950;2023-07-16T08:40:26;5.22;;;1.67;;
76801;SDS011;66403;50.832;10.950;2023-07-16T08:45:28;6.05;;;1.40;;
76801;SDS011;66403;50.832;10.950;2023-07-16T08:50:28;3.95;;;1.50;;
76801;SDS011;66403;50.832;10.950;2023-07-16T08:55:29;2.03;;;1.30;;
76801;SDS011;66403;50.832;10.950;2023-07-16T09:00:30;5.22;;;1.15;;
76801;SDS011;66403;50.832;10.950;2023-07-16T09:05:32;3.20;;;1.50;;
76801;SDS011;66403;50.832;10.950;2023-07-16T09:10:34;2.20;;;1.35;;
76801;SDS011;66403;50.832;10.950;2023-07-16T09:15:35;3.65;;;1.20;;
76801;SDS011;66403;50.832;10.950;2023-07-16T09:20:36;2.70;;;1.52;;
76801;SDS011;66403;50.832;10.950;2023-07-16T09:25:36;4.07;;;1.50;;
76801;SDS011;66403;50.832;10.950;2023-07-16T09:30:39;5.85;;;2.50;;
76801;SDS011;66403;50.832;10.950;2023-07-16T09:35:43;3.30;;;1.10;;
76801;SDS011;66403;50.832;10.950;2023-07-16T09:45:44;4.68;;;1.20;;
76801;SDS011;66403;50.832;10.950;2023-07-16T09:50:50;3.42;;;1.15;;
76801;SDS011;66403;50.832;10.950;2023-07-16T10:00:54;5.67;;;1.63;;
76801;SDS011;66403;50.832;10.950;2023-07-16T10:06:05;3.10;;;1.20;;
76801;SDS011;66403;50.832;10.950;2023-07-16T10:11:15;2.75;;;1.48;;
76801;SDS011;66403;50.832;10.950;2023-07-16T10:16:22;2.58;;;1.33;;
76801;SDS011;66403;50.832;10.950;2023-07-16T10:21:24;3.17;;;1.67;;
76801;SDS011;66403;50.832;10.950;2023-07-16T10:26:28;11.95;;;1.50;;
76801;SDS011;66403;50.832;10.950;2023-07-16T10:31:29;4.40;;;1.30;;
76801;SDS011;66403;50.832;10.950;2023-07-16T10:36:30;2.83;;;1.33;;
76801;SDS011;66403;50.832;10.950;2023-07-16T10:41:37;3.65;;;1.60;;
76801;SDS011;66403;50.832;10.950;2023-07-16T10:46:43;2.85;;;1.50;;
76801;SDS011;66403;50.832;10.950;2023-07-16T10:56:44;2.42;;;1.23;;
76801;SDS011;66403;50.832;10.950;2023-07-16T11:01:45;5.20;;;1.95;;
76801;SDS011;66403;50.832;10.950;2023-07-16T11:06:46;2.28;;;1.40;;
76801;SDS011;66403;50.832;10.950;2023-07-16T11:11:46;2.08;;;1.08;;
76801;SDS011;66403;50.832;10.950;2023-07-16T11:16:47;2.90;;;1.13;;
76801;SDS011;66403;50.832;10.950;2023-07-16T11:21:49;2.53;;;1.33;;
76801;SDS011;66403;50.832;10.950;2023-07-16T11:26:53;3.87;;;1.30;;
76801;SDS011;66403;50.832;10.950;2023-07-16T11:31:55;3.22;;;1.60;;
76801;SDS011;66403;50.832;10.950;2023-07-16T11:37:06;3.10;;;1.30;;
76801;SDS011;66403;50.832;10.950;2023-07-16T11:42:09;2.55;;;1.20;;
76801;SDS011;66403;50.832;10.950;2023-07-16T11:47:09;2.60;;;1.50;;
76801;SDS011;66403;50.832;10.950;2023-07-16T11:52:09;3.93;;;1.40;;
76801;SDS011;66403;50.832;10.950;2023-07-16T11:57:10;4.17;;;1.47;;
76801;SDS011;66403;50.832;10.950;2023-07-16T12:02:10;3.43;;;1.87;;
76801;SDS011;66403;50.832;10.950;2023-07-16T12:07:11;3.95;;;1.17;;
76801;SDS011;66403;50.832;10.950;2023-07-16T12:12:11;4.73;;;1.70;;
76801;SDS011;66403;50.832;10.950;2023-07-16T12:17:12;4.33;;;1.87;;
76801;SDS011;66403;50.832;10.950;2023-07-16T12:22:13;4.90;;;1.87;;
76801;SDS011;66403;50.832;10.950;2023-07-16T12:27:17;2.80;;;1.48;;
76801;SDS011;66403;50.832;10.950;2023-07-16T12:32:18;3.17;;;1.45;;
76801;SDS011;66403;50.832;10.950;2023-07-16T12:37:20;3.42;;;1.88;;
76801;SDS011;66403;50.832;10.950;2023-07-16T12:42:21;3.40;;;1.73;;
76801;SDS011;66403;50.832;10.950;2023-07-16T12:47:22;2.30;;;1.60;;
76801;SDS011;66403;50.832;10.950;2023-07-16T12:52:22;2.53;;;1.75;;
76801;SDS011;66403;50.832;10.950;2023-07-16T12:57:23;2.13;;;1.33;;
76801;SDS011;66403;50.832;10.950;2023-07-16T13:02:23;4.95;;;1.83;;
76801;SDS011;66403;50.832;10.950;2023-07-16T13:07:24;3.57;;;2.27;;
76801;SDS011;66403;50.832;10.950;2023-07-16T13:12:24;3.60;;;2.17;;
76801;SDS011;66403;50.832;10.950;2023-07-16T13:17:25;2.83;;;2.23;;
76801;SDS011;66403;50.832;10.950;2023-07-16T13:22:25;3.77;;;2.00;;
76801;SDS011;66403;50.832;10.950;2023-07-16T13:27:25;3.07;;;2.53;;
76801;SDS011;66403;50.832;10.950;2023-07-16T13:32:26;5.17;;;2.10;;
76801;SDS011;66403;50.832;10.950;2023-07-16T13:37:26;3.50;;;1.77;;
76801;SDS011;66403;50.832;10.950;2023-07-16T13:42:27;4.13;;;2.15;;
76801;SDS011;66403;50.832;10.950;2023-07-16T13:47:27;2.73;;;2.00;;
76801;SDS011;66403;50.832;10.950;2023-07-16T13:52:27;2.47;;;1.83;;
76801;SDS011;66403;50.832;10.950;2023-07-16T13:57:28;5.90;;;2.67;;
76801;SDS011;66403;50.832;10.950;2023-07-16T14:02:28;4.07;;;1.90;;
76801;SDS011;66403;50.832;10.950;2023-07-16T14:07:29;3.80;;;2.20;;
76801;SDS011;66403;50.832;10.950;2023-07-16T14:12:29;3.03;;;2.10;;
76801;SDS011;66403;50.832;10.950;2023-07-16T14:17:29;3.37;;;2.17;;
76801;SDS011;66403;50.832;10.950;2023-07-16T14:22:30;3.03;;;1.80;;
76801;SDS011;66403;50.832;10.950;2023-07-16T14:27:30;3.80;;;2.10;;
76801;SDS011;66403;50.832;10.950;2023-07-16T14:32:33;4.60;;;2.15;;
76801;SDS011;66403;50.832;10.950;2023-07-16T14:37:34;4.97;;;4.35;;
76801;SDS011;66403;50.832;10.950;2023-07-16T14:42:34;3.57;;;2.30;;
76801;SDS011;66403;50.832;10.950;2023-07-16T14:47:35;4.07;;;2.30;;
76801;SDS011;66403;50.832;10.950;2023-07-16T14:52:35;3.93;;;2.37;;
76801;SDS011;66403;50.832;10.950;2023-07-16T14:57:36;2.53;;;2.00;;
76801;SDS011;66403;50.832;10.950;2023-07-16T15:02:37;2.77;;;2.00;;
76801;SDS011;66403;50.832;10.950;2023-07-16T15:07:38;3.90;;;2.17;;
76801;SDS011;66403;50.832;10.950;2023-07-16T15:12:38;3.22;;;2.15;;
76801;SDS011;66403;50.832;10.950;2023-07-16T15:17:39;3.30;;;2.27;;
76801;SDS011;66403;50.832;10.950;2023-07-16T15:22:39;3.28;;;2.17;;
76801;SDS011;66403;50.832;10.950;2023-07-16T15:27:40;3.92;;;2.80;;
76801;SDS011;66403;50.832;10.950;2023-07-16T15:32:40;4.80;;;2.30;;
76801;SDS011;66403;50.832;10.950;2023-07-16T15:37:41;5.07;;;3.03;;
76801;SDS011;66403;50.832;10.950;2023-07-16T15:42:41;4.05;;;2.13;;
76801;SDS011;66403;50.832;10.950;2023-07-16T15:47:42;2.55;;;1.90;;
76801;SDS011;66403;50.832;10.950;2023-07-16T15:52:43;3.28;;;2.15;;
76801;SDS011;66403;50.832;10.950;2023-07-16T15:57:44;3.85;;;2.40;;
76801;SDS011;66403;50.832;10.950;2023-07-16T16:02:45;4.27;;;2.90;;
76801;SDS011;66403;50.832;10.950;2023-07-16T16:07:46;5.28;;;2.85;;
76801;SDS011;66403;50.832;10.950;2023-07-16T16:13:06;5.32;;;2.30;;
76801;SDS011;66403;50.832;10.950;2023-07-16T16:18:07;2.75;;;1.77;;
76801;SDS011;66403;50.832;10.950;2023-07-16T16:23:07;4.63;;;1.95;;
76801;SDS011;66403;50.832;10.950;2023-07-16T16:28:08;6.53;;;2.37;;
76801;SDS011;66403;50.832;10.950;2023-07-16T16:33:10;4.07;;;2.35;;
76801;SDS011;66403;50.832;10.950;2023-07-16T16:38:11;4.32;;;2.90;;
76801;SDS011;66403;50.832;10.950;2023-07-16T16:43:13;3.75;;;2.22;;
76801;SDS011;66403;50.832;10.950;2023-07-16T16:48:13;4.68;;;2.38;;
76801;SDS011;66403;50.832;10.950;2023-07-16T16:53:14;4.78;;;2.28;;
76801;SDS011;66403;50.832;10.950;2023-07-16T16:58:14;4.40;;;2.47;;
76801;SDS011;66403;50.832;10.950;2023-07-16T17:03:15;3.95;;;2.33;;
76801;SDS011;66403;50.832;10.950;2023-07-16T17:08:15;4.80;;;2.27;;
76801;SDS011;66403;50.832;10.950;2023-07-16T17:13:16;3.10;;;2.33;;
76801;SDS011;66403;50.832;10.950;2023-07-16T17:18:17;6.22;;;2.55;;
76801;SDS011;66403;50.832;10.950;2023-07-16T17:23:17;2.95;;;1.95;;
76801;SDS011;66403;50.832;10.950;2023-07-16T17:28:18;4.07;;;2.23;;
76801;SDS011;66403;50.832;10.950;2023-07-16T17:33:18;3.38;;;2.10;;
76801;SDS011;66403;50.832;10.950;2023-07-16T17:38:19;4.25;;;2.20;;
76801;SDS011;66403;50.832;10.950;2023-07-16T17:43:19;7.00;;;3.13;;
76801;SDS011;66403;50.832;10.950;2023-07-16T17:48:19;4.37;;;2.13;;
76801;SDS011;66403;50.832;10.950;2023-07-16T17:53:20;4.20;;;2.33;;
76801;SDS011;66403;50.832;10.950;2023-07-16T17:58:20;4.93;;;2.23;;
76801;SDS011;66403;50.832;10.950;2023-07-16T18:03:21;3.88;;;2.45;;
76801;SDS011;66403;50.832;10.950;2023-07-16T18:08:21;4.40;;;2.15;;
76801;SDS011;66403;50.832;10.950;2023-07-16T18:13:23;4.80;;;2.08;;
76801;SDS011;66403;50.832;10.950;2023-07-16T18:18:23;5.65;;;2.60;;
76801;SDS011;66403;50.832;10.950;2023-07-16T18:23:24;6.70;;;2.67;;
76801;SDS011;66403;50.832;10.950;2023-07-16T18:28:24;4.60;;;2.10;;
76801;SDS011;66403;50.832;10.950;2023-07-16T18:33:25;3.67;;;1.95;;
76801;SDS011;66403;50.832;10.950;2023-07-16T18:38:25;5.03;;;2.53;;
76801;SDS011;66403;50.832;10.950;2023-07-16T18:43:26;3.58;;;2.75;;
76801;SDS011;66403;50.832;10.950;2023-07-16T18:48:26;5.33;;;2.93;;
76801;SDS011;66403;50.832;10.950;2023-07-16T18:53:27;5.80;;;3.05;;
76801;SDS011;66403;50.832;10.950;2023-07-16T18:58:30;4.18;;;2.85;;
76801;SDS011;66403;50.832;10.950;2023-07-16T19:03:31;5.63;;;2.92;;
76801;SDS011;66403;50.832;10.950;2023-07-16T19:08:32;3.70;;;2.20;;
76801;SDS011;66403;50.832;10.950;2023-07-16T19:13:32;4.00;;;2.50;;
76801;SDS011;66403;50.832;10.950;2023-07-16T19:18:33;4.75;;;2.75;;
76801;SDS011;66403;50.832;10.950;2023-07-16T19:23:33;5.78;;;3.00;;
76801;SDS011;66403;50.832;10.950;2023-07-16T19:28:33;4.77;;;2.80;;
76801;SDS011;66403;50.832;10.950;2023-07-16T19:33:34;4.45;;;2.22;;
76801;SDS011;66403;50.832;10.950;2023-07-16T19:38:35;7.53;;;2.47;;
76801;SDS011;66403;50.832;10.950;2023-07-16T19:43:35;6.68;;;2.97;;
76801;SDS011;66403;50.832;10.950;2023-07-16T19:48:36;4.65;;;2.33;;
76801;SDS011;66403;50.832;10.950;2023-07-16T19:53:37;3.70;;;2.75;;
76801;SDS011;66403;50.832;10.950;2023-07-16T19:58:37;3.50;;;2.50;;
76801;SDS011;66403;50.832;10.950;2023-07-16T20:03:38;5.78;;;2.03;;
76801;SDS011;66403;50.832;10.950;2023-07-16T20:08:39;4.15;;;2.28;;
76801;SDS011;66403;50.832;10.950;2023-07-16T20:13:41;4.78;;;2.70;;
76801;SDS011;66403;50.832;10.950;2023-07-16T20:18:41;4.30;;;2.55;;
76801;SDS011;66403;50.832;10.950;2023-07-16T20:23:42;5.18;;;2.58;;
76801;SDS011;66403;50.832;10.950;2023-07-16T20:28:42;5.68;;;2.40;;
76801;SDS011;66403;50.832;10.950;2023-07-16T20:33:43;5.55;;;2.38;;
76801;SDS011;66403;50.832;10.950;2023-07-16T20:38:43;4.78;;;2.35;;
76801;SDS011;66403;50.832;10.950;2023-07-16T20:43:44;6.60;;;2.55;;
76801;SDS011;66403;50.832;10.950;2023-07-16T20:48:46;4.65;;;2.60;;
76801;SDS011;66403;50.832;10.950;2023-07-16T20:53:47;4.47;;;2.47;;
76801;SDS011;66403;50.832;10.950;2023-07-16T20:58:47;4.93;;;2.88;;
76801;SDS011;66403;50.832;10.950;2023-07-16T21:03:48;4.35;;;2.53;;
76801;SDS011;66403;50.832;10.950;2023-07-16T21:08:48;7.47;;;3.40;;
76801;SDS011;66403;50.832;10.950;2023-07-16T21:13:49;15.07;;;8.13;;
76801;SDS011;66403;50.832;10.950;2023-07-16T21:18:50;5.57;;;3.63;;
76801;SDS011;66403;50.832;10.950;2023-07-16T21:23:50;4.32;;;2.33;;
76801;SDS011;66403;50.832;10.950;2023-07-16T21:28:51;3.92;;;2.42;;
76801;SDS011;66403;50.832;10.950;2023-07-16T21:33:52;6.03;;;2.72;;
76801;SDS011;66403;50.832;10.950;2023-07-16T21:38:52;6.82;;;3.25;;
76801;SDS011;66403;50.832;10.950;2023-07-16T21:43:53;4.65;;;2.80;;
76801;SDS011;66403;50.832;10.950;2023-07-16T21:48:53;4.65;;;3.08;;
76801;SDS011;66403;50.832;10.950;2023-07-16T21:53:54;5.00;;;3.35;;
76801;SDS011;66403;50.832;10.950;2023-07-16T21:58:54;3.75;;;2.50;;
76801;SDS011;66403;50.832;10.950;2023-07-16T22:03:55;6.07;;;3.03;;
76801;SDS011;66403;50.832;10.950;2023-07-16T22:08:55;3.38;;;3.00;;
76801;SDS011;66403;50.832;10.950;2023-07-16T22:13:56;4.50;;;2.58;;
76801;SDS011;66403;50.832;10.950;2023-07-16T22:18:56;5.18;;;2.72;;
76801;SDS011;66403;50.832;10.950;2023-07-16T22:23:57;6.05;;;2.83;;
76801;SDS011;66403;50.832;10.950;2023-07-16T22:28:57;6.45;;;3.80;;
76801;SDS011;66403;50.832;10.950;2023-07-16T22:33:58;5.63;;;3.15;;
76801;SDS011;66403;50.832;10.950;2023-07-16T22:38:58;4.65;;;2.83;;
76801;SDS011;66403;50.832;10.950;2023-07-16T22:43:58;5.57;;;3.30;;
76801;SDS011;66403;50.832;10.950;2023-07-16T22:48:59;4.00;;;2.78;;
76801;SDS011;66403;50.832;10.950;2023-07-16T22:53:59;3.92;;;3.13;;
76801;SDS011;66403;50.832;10.950;2023-07-16T22:59:00;5.93;;;3.08;;
76801;SDS011;66403;50.832;10.950;2023-07-16T23:04:01;5.82;;;3.33;;
76801;SDS011;66403;50.832;10.950;2023-07-16T23:09:01;6.25;;;3.38;;
76801;SDS011;66403;50.832;10.950;2023-07-16T23:14:02;4.95;;;3.13;;
76801;SDS011;66403;50.832;10.950;2023-07-16T23:19:02;4.80;;;3.20;;
76801;SDS011;66403;50.832;10.950;2023-07-16T23:24:03;4.38;;;3.08;;
76801;SDS011;66403;50.832;10.950;2023-07-16T23:29:04;4.03;;;2.45;;
76801;SDS011;66403;50.832;10.950;2023-07-16T23:34:05;4.40;;;3.05;;
76801;SDS011;66403;50.832;10.950;2023-07-16T23:39:06;7.15;;;3.10;;
76801;SDS011;66403;50.832;10.950;2023-07-16T23:44:07;7.43;;;3.55;;
76801;SDS011;66403;50.832;10.950;2023-07-16T23:49:07;6.30;;;3.45;;
76801;SDS011;66403;50.832;10.950;2023-07-16T23:54:08;6.82;;;3.78;;
76801;SDS011;66403;50.832;10.950;2023-07-16T23:59:08;6.55;;;2.95;;
